createdAt,value
2023-04-12T00:02:10.958Z,0.15
2023-04-12T00:04:37.504Z,0.20
2023-04-12T00:07:06.012Z,0.10
2023-04-12T00:09:32.304Z,0.10
2023-04-12T00:11:59.060Z,0.20
2023-04-12T00:14:25.965Z,0.08
2023-04-12T00:16:52.471Z,0.13
2023-04-12T00:19:18.706Z,0.10
2023-04-12T00:21:45.043Z,0.05
2023-04-12T00:24:11.504Z,0.00
2023-04-12T00:26:37.758Z,0.10
2023-04-12T00:29:04.131Z,0.17
2023-04-12T00:31:30.494Z,0.00
2023-04-12T00:33:56.974Z,0.05
2023-04-12T00:36:23.315Z,0.00
2023-04-12T00:38:49.628Z,0.00
2023-04-12T00:41:16.204Z,0.03
2023-04-12T00:43:42.502Z,0.00
2023-04-12T00:46:09.048Z,0.00
2023-04-12T00:48:36.547Z,0.10
2023-04-12T00:51:04.707Z,0.00
2023-04-12T00:53:31.303Z,0.00
2023-04-12T00:55:58.205Z,0.03
2023-04-12T00:58:24.530Z,0.08
2023-04-12T01:00:52.868Z,0.10
2023-04-12T01:03:24.059Z,0.10
2023-04-12T01:05:56.883Z,0.08
2023-04-12T01:08:39.270Z,0.08
2023-04-12T01:13:39.618Z,0.08
2023-04-12T01:16:06.016Z,0.10
2023-04-12T01:18:34.903Z,0.10
2023-04-12T01:21:03.854Z,0.08
2023-04-12T01:23:33.107Z,0.20
2023-04-12T01:26:08.595Z,0.00
2023-04-12T01:28:36.946Z,0.00
2023-04-12T01:31:03.586Z,0.05
2023-04-12T01:33:31.623Z,0.00
2023-04-12T01:35:59.543Z,0.00
2023-04-12T01:38:26.828Z,0.00
2023-04-12T01:40:53.706Z,0.03
2023-04-12T01:43:19.945Z,0.10
2023-04-12T01:45:46.263Z,0.10
2023-04-12T01:48:12.762Z,0.00
2023-04-12T01:50:50.473Z,0.00
2023-04-12T01:53:26.672Z,0.00
2023-04-12T01:55:57.510Z,0.30
2023-04-12T01:58:24.763Z,0.10
2023-04-12T02:00:52.160Z,0.00
2023-04-12T02:03:21.972Z,0.10
2023-04-12T02:05:49.292Z,0.08
2023-04-12T02:08:16.303Z,0.25
2023-04-12T02:10:42.693Z,0.10
2023-04-12T02:13:09.022Z,0.10
2023-04-12T02:15:37.210Z,0.10
2023-04-12T02:18:03.567Z,0.00
2023-04-12T02:20:29.890Z,0.10
2023-04-12T02:22:56.165Z,0.03
2023-04-12T02:25:22.639Z,0.10
2023-04-12T02:27:48.998Z,0.08
2023-04-12T02:30:15.539Z,0.00
2023-04-12T02:32:44.174Z,0.00
2023-04-12T02:35:11.796Z,0.00
2023-04-12T02:37:38.215Z,0.15
2023-04-12T02:40:06.348Z,0.10
2023-04-12T02:42:32.894Z,0.10
2023-04-12T02:44:59.203Z,0.10
2023-04-12T02:47:30.110Z,0.10
2023-04-12T02:49:56.466Z,0.10
2023-04-12T02:52:22.786Z,0.00
2023-04-12T02:54:49.933Z,0.10
2023-04-12T02:57:16.298Z,0.10
2023-04-12T02:59:42.797Z,0.03
2023-04-12T03:02:10.492Z,0.10
2023-04-12T03:04:39.889Z,0.10
2023-04-12T03:07:06.729Z,0.20
2023-04-12T03:09:33.210Z,0.10
2023-04-12T03:11:59.515Z,0.00
2023-04-12T03:14:25.825Z,0.00
2023-04-12T03:16:53.512Z,0.10
2023-04-12T03:19:19.827Z,0.05
2023-04-12T03:21:46.134Z,0.00
2023-04-12T03:24:12.465Z,0.30
2023-04-12T03:26:39.305Z,0.10
2023-04-12T03:29:05.983Z,0.00
2023-04-12T03:31:32.369Z,0.10
2023-04-12T03:33:58.785Z,0.03
2023-04-12T03:36:26.952Z,0.20
2023-04-12T03:38:53.684Z,0.00
2023-04-12T03:41:21.684Z,0.10
2023-04-12T03:43:47.917Z,0.00
2023-04-12T03:46:15.417Z,0.68
2023-04-12T03:48:42.202Z,0.00
2023-04-12T03:51:13.076Z,0.10
2023-04-12T03:53:39.366Z,0.08
2023-04-12T03:56:05.836Z,0.00
2023-04-12T03:58:33.781Z,0.28
2023-04-12T04:01:02.530Z,0.10
2023-04-12T04:03:29.563Z,0.00
2023-04-12T04:05:56.343Z,0.10
2023-04-12T04:08:22.718Z,0.00
2023-04-12T04:10:49.003Z,0.10
2023-04-12T04:13:15.309Z,0.20
2023-04-12T04:15:41.645Z,0.10
2023-04-12T04:18:08.042Z,0.30
2023-04-12T04:20:34.354Z,0.00
2023-04-12T04:23:00.668Z,0.00
2023-04-12T04:25:29.874Z,0.05
2023-04-12T04:27:56.565Z,0.00
2023-04-12T04:30:23.103Z,0.00
2023-04-12T04:32:49.947Z,0.10
2023-04-12T04:35:17.296Z,0.00
2023-04-12T04:37:43.839Z,0.00
2023-04-12T04:40:12.866Z,0.00
2023-04-12T04:42:39.708Z,0.00
2023-04-12T04:45:13.087Z,0.05
2023-04-12T04:47:39.747Z,0.10
2023-04-12T04:50:06.482Z,0.00
2023-04-12T04:52:32.837Z,0.00
2023-04-12T04:54:59.232Z,0.00
2023-04-12T04:57:28.439Z,0.20
2023-04-12T04:59:54.713Z,0.08
2023-04-12T05:02:21.413Z,0.00
2023-04-12T05:04:47.768Z,0.00
2023-04-12T05:07:14.271Z,0.10
2023-04-12T05:09:41.007Z,0.00
2023-04-12T05:12:07.244Z,0.20
2023-04-12T05:14:45.490Z,0.10
2023-04-12T05:17:14.116Z,0.10
2023-04-12T05:19:41.369Z,0.00
2023-04-12T05:22:07.644Z,0.05
2023-04-12T05:24:33.934Z,0.05
2023-04-12T05:27:00.197Z,0.00
2023-04-12T05:29:26.587Z,0.00
2023-04-12T05:31:52.879Z,0.00
2023-04-12T05:34:19.107Z,0.30
2023-04-12T05:36:45.309Z,0.00
2023-04-12T05:39:11.708Z,0.00
2023-04-12T05:41:40.624Z,0.05
2023-04-12T05:44:06.844Z,0.00
2023-04-12T05:46:33.232Z,0.00
2023-04-12T05:48:59.672Z,0.08
2023-04-12T05:51:40.025Z,0.00
2023-04-12T05:54:07.177Z,0.00
2023-04-12T05:56:33.950Z,0.00
2023-04-12T05:59:02.928Z,0.00
2023-04-12T06:01:32.503Z,0.00
2023-04-12T06:03:59.439Z,0.13
2023-04-12T06:06:30.058Z,0.10
2023-04-12T06:09:00.140Z,0.00
2023-04-12T06:11:26.795Z,0.00
2023-04-12T06:13:53.036Z,0.08
2023-04-12T06:16:19.543Z,0.00
2023-04-12T06:18:46.049Z,0.30
2023-04-12T06:21:13.418Z,0.00
2023-04-12T06:23:39.702Z,0.10
2023-04-12T06:26:06.132Z,0.00
2023-04-12T06:28:32.412Z,0.00
2023-04-12T06:30:58.843Z,0.05
2023-04-12T06:33:26.058Z,0.10
2023-04-12T06:35:55.013Z,0.00
2023-04-12T06:38:21.269Z,0.00
2023-04-12T06:40:47.680Z,0.13
2023-04-12T06:43:15.451Z,0.00
2023-04-12T06:45:41.949Z,0.00
2023-04-12T06:48:08.201Z,0.00
2023-04-12T06:50:34.937Z,0.00
2023-04-12T06:53:01.243Z,0.00
2023-04-12T06:55:29.217Z,0.00
2023-04-12T06:57:55.589Z,0.05
2023-04-12T07:00:22.063Z,0.08
2023-04-12T07:02:48.501Z,0.00
2023-04-12T07:05:14.936Z,0.28
2023-04-12T07:07:41.212Z,0.00
2023-04-12T07:10:07.590Z,0.10
2023-04-12T07:12:36.796Z,0.28
2023-04-12T07:15:03.506Z,0.10
2023-04-12T07:17:29.830Z,0.10
2023-04-12T07:19:56.244Z,0.10
2023-04-12T07:22:22.874Z,0.10
2023-04-12T07:24:51.133Z,0.08
2023-04-12T07:27:17.403Z,0.00
2023-04-12T07:29:43.683Z,0.10
2023-04-12T07:32:10.777Z,0.10
2023-04-12T07:34:37.706Z,0.38
2023-04-12T07:37:04.070Z,0.20
2023-04-12T07:39:31.554Z,0.00
2023-04-12T07:41:57.808Z,1.02
2023-04-12T07:44:24.171Z,0.10
2023-04-12T07:46:50.583Z,0.13
2023-04-12T07:49:16.918Z,0.20
2023-04-12T07:51:43.601Z,0.20
2023-04-12T07:54:10.011Z,0.10
2023-04-12T07:56:36.295Z,0.10
2023-04-12T07:59:02.726Z,0.05
2023-04-12T08:01:29.053Z,0.30
2023-04-12T08:03:55.555Z,0.20
2023-04-12T08:06:21.928Z,0.40
2023-04-12T08:08:48.223Z,0.10
2023-04-12T08:11:14.493Z,0.30
2023-04-12T08:13:40.740Z,0.20
2023-04-12T08:16:08.242Z,0.22
2023-04-12T08:18:34.523Z,0.57
2023-04-12T08:21:01.231Z,0.25
2023-04-12T08:23:27.550Z,0.10
2023-04-12T08:26:03.135Z,0.20
2023-04-12T08:28:30.052Z,0.25
2023-04-12T08:30:56.472Z,0.17
2023-04-12T08:33:22.724Z,0.30
2023-04-12T08:35:49.456Z,0.60
2023-04-12T08:38:16.469Z,0.40
2023-04-12T08:40:43.314Z,0.50
2023-04-12T08:43:11.437Z,0.40
2023-04-12T08:45:38.088Z,0.40
2023-04-12T08:48:04.876Z,0.50
2023-04-12T08:50:31.785Z,0.57
2023-04-12T08:52:58.759Z,0.40
2023-04-12T08:55:25.563Z,0.50
2023-04-12T08:57:53.628Z,0.47
2023-04-12T09:00:20.542Z,0.63
2023-04-12T09:02:48.781Z,0.68
2023-04-12T09:05:15.526Z,0.43
2023-04-12T09:07:42.392Z,0.98
2023-04-12T09:10:08.965Z,0.50
2023-04-12T09:12:35.473Z,0.82
2023-04-12T09:15:09.121Z,0.60
2023-04-12T09:17:39.047Z,0.50
2023-04-12T09:20:23.519Z,0.45
2023-04-12T09:22:50.010Z,1.25
2023-04-12T09:25:16.547Z,0.50
2023-04-12T09:27:49.390Z,1.00
2023-04-12T09:30:16.644Z,0.52
2023-04-12T09:32:43.337Z,0.50
2023-04-12T09:35:10.013Z,0.82
2023-04-12T09:37:36.341Z,0.80
2023-04-12T09:40:09.607Z,0.47
2023-04-12T09:42:37.092Z,0.47
2023-04-12T09:45:20.531Z,0.40
2023-04-12T09:47:47.264Z,0.40
2023-04-12T09:50:21.276Z,0.63
2023-04-12T09:52:48.272Z,0.63
2023-04-12T09:55:15.400Z,0.30
2023-04-12T09:57:42.469Z,0.40
2023-04-12T10:00:18.641Z,0.40
2023-04-12T10:02:47.692Z,0.43
2023-04-12T10:05:16.048Z,0.60
2023-04-12T10:07:42.712Z,0.43
2023-04-12T10:10:09.652Z,0.52
2023-04-12T10:12:36.568Z,0.40
2023-04-12T10:15:05.650Z,0.60
2023-04-12T10:17:32.653Z,0.57
2023-04-12T10:19:59.221Z,0.35
2023-04-12T10:22:25.547Z,0.50
2023-04-12T10:24:52.426Z,0.38
2023-04-12T10:27:25.898Z,0.75
2023-04-12T10:29:52.169Z,0.40
2023-04-12T10:32:22.746Z,0.63
2023-04-12T10:34:53.225Z,0.85
2023-04-12T10:37:19.709Z,0.60
2023-04-12T10:39:52.211Z,0.80
2023-04-12T10:42:23.493Z,0.93
2023-04-12T10:44:51.854Z,0.45
2023-04-12T10:47:44.698Z,0.35
2023-04-12T10:50:27.606Z,0.40
2023-04-12T10:53:13.491Z,0.70
2023-04-12T10:55:39.990Z,0.35
2023-04-12T10:58:09.273Z,0.57
2023-04-12T11:01:08.188Z,0.40
2023-04-12T11:03:34.828Z,0.43
2023-04-12T11:06:12.520Z,0.50
2023-04-12T11:08:46.403Z,0.40
2023-04-12T11:11:19.578Z,0.43
2023-04-12T11:13:46.276Z,0.52
2023-04-12T11:16:16.071Z,0.40
2023-04-12T11:18:46.271Z,0.60
2023-04-12T11:21:12.708Z,0.50
2023-04-12T11:23:39.597Z,0.25
2023-04-12T11:26:06.163Z,0.50
2023-04-12T11:28:34.668Z,0.30
2023-04-12T11:31:02.830Z,0.82
2023-04-12T11:33:38.673Z,0.50
2023-04-12T11:36:09.468Z,0.40
2023-04-12T11:38:36.708Z,0.57
2023-04-12T11:41:03.780Z,0.50
2023-04-12T11:43:30.516Z,0.98
2023-04-12T11:46:00.302Z,0.30
2023-04-12T11:48:27.457Z,0.30
2023-04-12T11:51:07.886Z,0.17
2023-04-12T11:53:37.512Z,0.20
2023-04-12T11:56:03.919Z,0.63
2023-04-12T11:58:30.318Z,0.20
2023-04-12T12:00:59.847Z,0.20
2023-04-12T12:03:26.302Z,0.30
2023-04-12T12:05:53.576Z,0.10
2023-04-12T12:08:20.269Z,0.10
2023-04-12T12:13:18.538Z,0.00
2023-04-12T12:15:45.843Z,0.20
2023-04-12T12:18:13.781Z,0.40
2023-04-12T12:20:50.191Z,0.80
2023-04-12T12:23:28.539Z,0.20
2023-04-12T12:26:03.064Z,0.30
2023-04-12T12:28:41.360Z,0.10
2023-04-12T12:31:09.610Z,0.30
2023-04-12T12:33:45.889Z,0.35
2023-04-12T12:36:17.020Z,0.25
2023-04-12T12:38:43.531Z,0.10
2023-04-12T12:41:16.403Z,0.20
2023-04-12T12:43:46.542Z,0.20
2023-04-12T12:46:13.354Z,0.32
2023-04-12T12:48:42.697Z,0.52
2023-04-12T12:51:09.986Z,0.20
2023-04-12T12:53:36.692Z,0.08
2023-04-12T12:56:03.172Z,0.20
2023-04-12T12:58:29.774Z,0.10
2023-04-12T13:00:56.112Z,0.13
2023-04-12T13:03:22.934Z,0.10
2023-04-12T13:05:49.992Z,0.30
2023-04-12T13:08:16.311Z,0.25
2023-04-12T13:10:42.639Z,0.20
2023-04-12T13:13:08.921Z,0.20
2023-04-12T13:15:35.292Z,0.20
2023-04-12T13:18:01.750Z,0.10
2023-04-12T13:20:28.460Z,0.10
2023-04-12T13:22:54.699Z,0.00
2023-04-12T13:25:21.351Z,0.00
2023-04-12T13:27:48.436Z,0.20
2023-04-12T13:30:14.765Z,0.10
2023-04-12T13:32:41.123Z,0.05
2023-04-12T13:35:07.594Z,0.00
2023-04-12T13:37:34.098Z,0.30
2023-04-12T13:40:00.389Z,0.10
2023-04-12T13:42:26.677Z,0.05
2023-04-12T13:44:53.039Z,0.00
2023-04-12T13:47:19.287Z,0.10
2023-04-12T13:49:45.863Z,0.43
2023-04-12T13:52:12.406Z,0.00
2023-04-12T13:54:38.715Z,0.10
2023-04-12T13:57:05.890Z,0.10
2023-04-12T13:59:32.377Z,0.20
2023-04-12T14:01:58.823Z,0.03
2023-04-12T14:04:27.084Z,0.00
2023-04-12T14:06:53.398Z,0.00
2023-04-12T14:09:24.946Z,0.00
2023-04-12T14:11:51.771Z,0.00
2023-04-12T14:14:18.210Z,0.00
2023-04-12T14:16:44.824Z,0.00
2023-04-12T14:19:11.164Z,0.03
2023-04-12T14:21:37.627Z,0.10
2023-04-12T14:24:04.207Z,0.00
2023-04-12T14:26:30.477Z,0.32
2023-04-12T14:28:56.864Z,0.05
2023-04-12T14:31:23.489Z,0.10
2023-04-12T14:33:49.844Z,0.00
2023-04-12T14:36:16.148Z,0.00
2023-04-12T14:38:44.822Z,0.00
2023-04-12T14:41:11.353Z,0.00
2023-04-12T14:43:37.746Z,0.10
2023-04-12T14:46:04.250Z,0.00
2023-04-12T14:48:30.642Z,0.00
2023-04-12T14:50:56.985Z,0.10
2023-04-12T14:53:23.543Z,0.10
2023-04-12T14:55:49.852Z,0.22
2023-04-12T14:58:16.276Z,0.03
2023-04-12T15:00:42.586Z,0.08
2023-04-12T15:03:09.049Z,0.00
2023-04-12T15:05:35.770Z,0.00
2023-04-12T15:08:02.229Z,0.00
2023-04-12T15:10:28.537Z,0.10
2023-04-12T15:12:54.820Z,0.10
2023-04-12T15:15:21.726Z,0.10
2023-04-12T15:17:48.028Z,0.00
2023-04-12T15:20:15.717Z,0.00
2023-04-12T15:22:42.557Z,0.00
2023-04-12T15:25:09.710Z,0.10
2023-04-12T15:27:36.094Z,0.10
2023-04-12T15:30:02.404Z,0.00
2023-04-12T15:32:28.912Z,0.05
2023-04-12T15:34:56.144Z,0.03
2023-04-12T15:37:22.875Z,0.10
2023-04-12T15:39:49.998Z,0.20
2023-04-12T15:42:16.719Z,0.00
2023-04-12T15:44:43.166Z,0.00
2023-04-12T15:47:11.965Z,0.00
2023-04-12T15:49:41.318Z,0.00
2023-04-12T15:52:07.872Z,0.00
2023-04-12T15:54:35.097Z,0.00
2023-04-12T15:57:09.279Z,0.00
2023-04-12T15:59:37.999Z,0.03
2023-04-12T16:02:09.634Z,0.10
2023-04-12T16:04:36.571Z,0.00
2023-04-12T16:07:04.515Z,0.00
2023-04-12T16:09:32.650Z,0.00
2023-04-12T16:11:59.865Z,0.00
2023-04-12T16:14:26.427Z,0.10
2023-04-12T16:16:52.687Z,0.20
2023-04-12T16:19:18.943Z,0.00
2023-04-12T16:21:45.954Z,0.10
2023-04-12T16:24:13.347Z,0.03
2023-04-12T16:26:40.128Z,0.00
2023-04-12T16:29:06.399Z,0.00
2023-04-12T16:31:32.670Z,0.17
2023-04-12T16:33:58.967Z,0.15
2023-04-12T16:36:27.108Z,0.10
2023-04-12T16:38:59.075Z,0.10
2023-04-12T16:41:25.868Z,0.00
2023-04-12T16:43:53.899Z,0.00
2023-04-12T16:46:23.485Z,0.00
2023-04-12T16:48:49.823Z,0.00
2023-04-12T16:51:16.955Z,0.00
2023-04-12T16:53:43.981Z,0.00
2023-04-12T16:56:10.812Z,0.00
2023-04-12T16:58:37.333Z,0.00
2023-04-12T17:01:03.668Z,0.00
2023-04-12T17:03:32.601Z,0.00
2023-04-12T17:05:59.140Z,0.17
2023-04-12T17:08:25.442Z,0.05
2023-04-12T17:10:51.730Z,0.00
2023-04-12T17:13:20.236Z,0.10
2023-04-12T17:15:48.178Z,0.00
2023-04-12T17:18:14.659Z,0.00
2023-04-12T17:20:41.158Z,0.05
2023-04-12T17:23:08.576Z,0.00
2023-04-12T17:25:35.684Z,0.00
2023-04-12T17:28:02.424Z,0.10
2023-04-12T17:30:28.837Z,0.13
2023-04-12T17:32:58.678Z,0.08
2023-04-12T17:35:24.965Z,0.00
2023-04-12T17:37:51.330Z,0.13
2023-04-12T17:40:17.625Z,0.00
2023-04-12T17:42:44.223Z,0.20
2023-04-12T17:45:12.611Z,0.10
2023-04-12T17:47:41.487Z,0.00
2023-04-12T17:50:09.133Z,0.10
2023-04-12T17:52:36.116Z,0.10
2023-04-12T17:55:03.587Z,0.00
2023-04-12T17:57:29.889Z,0.22
2023-04-12T17:59:56.119Z,0.00
2023-04-12T18:02:22.751Z,0.00
2023-04-12T18:04:49.588Z,0.00
2023-04-12T18:07:16.383Z,0.00
2023-04-12T18:09:44.716Z,0.20
2023-04-12T18:12:11.795Z,0.20
2023-04-12T18:14:40.337Z,0.22
2023-04-12T18:17:07.271Z,0.08
2023-04-12T18:19:33.572Z,0.00
2023-04-12T18:22:00.396Z,0.17
2023-04-12T18:24:26.850Z,0.00
2023-04-12T18:26:53.303Z,0.30
2023-04-12T18:29:19.659Z,0.00
2023-04-12T18:31:46.080Z,0.10
2023-04-12T18:34:12.628Z,0.10
2023-04-12T18:36:39.459Z,0.00
2023-04-12T18:39:05.991Z,0.05
2023-04-12T18:41:32.419Z,0.10
2023-04-12T18:43:58.853Z,0.00
2023-04-12T18:46:26.862Z,0.00
2023-04-12T18:48:54.548Z,0.20
2023-04-12T18:51:24.235Z,0.90
2023-04-12T18:53:51.051Z,0.00
2023-04-12T18:56:22.980Z,0.00
2023-04-12T18:58:55.209Z,0.00
2023-04-12T19:01:22.657Z,0.00
2023-04-12T19:03:49.447Z,0.05
2023-04-12T19:06:15.853Z,0.00
2023-04-12T19:08:45.771Z,0.10
2023-04-12T19:11:12.302Z,0.00
2023-04-12T19:13:38.682Z,0.10
2023-04-12T19:18:32.967Z,0.00
2023-04-12T19:20:59.864Z,0.13
2023-04-12T19:23:27.298Z,0.22
2023-04-12T19:25:53.895Z,0.00
2023-04-12T19:28:20.507Z,0.45
2023-04-12T19:30:46.768Z,0.15
2023-04-12T19:33:13.396Z,0.00
2023-04-12T19:35:40.288Z,0.28
2023-04-12T19:38:06.626Z,0.08
2023-04-12T19:40:32.888Z,0.08
2023-04-12T19:43:01.530Z,0.15
2023-04-12T19:45:28.786Z,0.10
2023-04-12T19:47:56.054Z,0.03
2023-04-12T19:50:23.025Z,0.00
2023-04-12T19:52:49.389Z,0.00
2023-04-12T19:55:16.174Z,0.10
2023-04-12T19:57:43.077Z,0.05
2023-04-12T20:00:19.529Z,0.00
2023-04-12T20:02:49.588Z,0.10
2023-04-12T20:05:16.604Z,0.00
2023-04-12T20:07:45.837Z,0.00
2023-04-12T20:10:15.634Z,0.00
2023-04-12T20:12:41.976Z,0.05
2023-04-12T20:15:08.781Z,0.10
2023-04-12T20:17:35.543Z,0.10
2023-04-12T20:20:01.912Z,0.17
2023-04-12T20:22:28.153Z,0.22
2023-04-12T20:24:54.506Z,0.00
2023-04-12T20:27:22.517Z,0.00
2023-04-12T20:29:48.827Z,0.00
2023-04-12T20:32:15.236Z,0.00
2023-04-12T20:34:46.521Z,0.10
2023-04-12T20:37:13.374Z,0.00
2023-04-12T20:39:40.256Z,0.10
2023-04-12T20:42:06.932Z,0.00
2023-04-12T20:44:33.172Z,0.00
2023-04-12T20:46:59.579Z,0.00
2023-04-12T20:49:27.673Z,0.03
2023-04-12T20:51:58.796Z,0.00
2023-04-12T20:54:25.662Z,0.00
2023-04-12T20:56:52.535Z,0.00
2023-04-12T20:59:21.852Z,0.00
2023-04-12T21:01:49.067Z,0.00
2023-04-12T21:04:15.745Z,0.00
2023-04-12T21:06:47.522Z,0.10
2023-04-12T21:09:14.651Z,0.00
2023-04-12T21:11:44.234Z,0.10
2023-04-12T21:14:10.638Z,0.00
2023-04-12T21:16:38.480Z,0.38
2023-04-12T21:19:05.274Z,0.10
2023-04-12T21:21:37.790Z,0.08
2023-04-12T21:24:04.048Z,0.00
2023-04-12T21:26:31.605Z,0.10
2023-04-12T21:28:58.407Z,0.00
2023-04-12T21:31:25.103Z,0.00
2023-04-12T21:33:51.924Z,0.15
2023-04-12T21:36:18.837Z,0.10
2023-04-12T21:38:45.244Z,0.00
2023-04-12T21:41:12.774Z,0.10
2023-04-12T21:43:39.606Z,0.00
2023-04-12T21:46:07.905Z,0.10
2023-04-12T21:48:34.806Z,0.00
2023-04-12T21:51:01.045Z,0.13
2023-04-12T21:53:27.347Z,0.00
2023-04-12T21:55:53.584Z,0.00
2023-04-12T21:58:19.919Z,0.00
2023-04-12T22:00:47.107Z,0.00
2023-04-12T22:03:13.614Z,0.00
2023-04-12T22:05:40.097Z,0.10
2023-04-12T22:08:10.326Z,0.00
2023-04-12T22:10:36.839Z,0.00
2023-04-12T22:13:03.251Z,0.00
2023-04-12T22:15:29.917Z,0.03
2023-04-12T22:17:56.896Z,0.03
2023-04-12T22:20:23.499Z,0.00
2023-04-12T22:22:50.547Z,0.00
2023-04-12T22:25:19.900Z,0.00
2023-04-12T22:27:47.655Z,0.10
2023-04-12T22:30:14.384Z,0.00
2023-04-12T22:32:40.761Z,0.10
2023-04-12T22:35:09.069Z,0.00
2023-04-12T22:37:36.044Z,0.00
2023-04-12T22:40:02.475Z,0.00
2023-04-12T22:42:29.877Z,0.00
2023-04-12T22:44:59.474Z,0.68
2023-04-12T22:47:26.442Z,0.20
2023-04-12T22:49:54.587Z,0.00
2023-04-12T22:52:21.920Z,0.00
2023-04-12T22:54:48.672Z,0.10
2023-04-12T22:57:15.590Z,0.28
2023-04-12T22:59:41.816Z,0.00
2023-04-12T23:02:08.231Z,0.00
2023-04-12T23:04:34.678Z,0.00
2023-04-12T23:07:04.736Z,0.00
2023-04-12T23:09:32.809Z,0.00
2023-04-12T23:11:59.164Z,0.00
2023-04-12T23:14:25.427Z,0.00
2023-04-12T23:16:51.750Z,0.00
2023-04-12T23:19:18.147Z,0.00
2023-04-12T23:21:44.406Z,0.00
2023-04-12T23:24:16.236Z,0.00
2023-04-12T23:26:45.043Z,0.00
2023-04-12T23:29:12.484Z,0.00
2023-04-12T23:31:38.906Z,0.00
2023-04-12T23:34:06.096Z,0.10
2023-04-12T23:36:33.156Z,0.13
2023-04-12T23:39:01.982Z,0.00
2023-04-12T23:41:31.954Z,0.00
2023-04-12T23:43:58.832Z,0.00
2023-04-12T23:46:25.940Z,0.00
2023-04-12T23:48:52.690Z,0.00
2023-04-12T23:51:19.019Z,0.00
2023-04-12T23:53:45.349Z,0.00
2023-04-12T23:56:11.878Z,0.00
2023-04-12T23:58:38.163Z,0.20
